createdAt,value
2018-06-14T00:02:25.075Z,12.60
2018-06-14T00:07:55.737Z,12.60
2018-06-14T00:13:26.054Z,12.50
2018-06-14T00:18:55.708Z,12.50
2018-06-14T00:24:25.826Z,12.50
2018-06-14T00:29:55.788Z,12.50
2018-06-14T00:35:25.628Z,12.50
2018-06-14T00:40:55.393Z,12.50
2018-06-14T00:46:25.180Z,12.50
2018-06-14T00:51:55.064Z,12.40
2018-06-14T00:57:29.565Z,12.40
2018-06-14T01:02:58.804Z,12.40
2018-06-14T01:08:28.287Z,12.40
2018-06-14T01:13:57.475Z,12.40
2018-06-14T01:19:26.647Z,12.40
2018-06-14T01:24:56.525Z,12.40
2018-06-14T01:30:25.767Z,12.40
2018-06-14T01:35:55.691Z,12.40
2018-06-14T01:41:25.707Z,12.40
2018-06-14T01:46:55.456Z,12.30
2018-06-14T01:52:24.946Z,12.30
2018-06-14T01:57:54.344Z,12.30
2018-06-14T02:03:24.559Z,12.30
2018-06-14T02:08:54.204Z,12.30
2018-06-14T02:14:24.531Z,12.30
2018-06-14T02:19:54.100Z,12.30
2018-06-14T02:25:24.473Z,12.30
2018-06-14T02:30:53.915Z,12.30
2018-06-14T02:36:23.673Z,12.20
2018-06-14T02:42:03.398Z,12.30
2018-06-14T02:47:32.605Z,12.20
2018-06-14T02:53:01.897Z,12.20
2018-06-14T02:58:31.132Z,12.20
2018-06-14T03:04:00.303Z,12.10
2018-06-14T03:09:29.604Z,12.20
2018-06-14T03:14:58.837Z,12.10
2018-06-14T03:20:28.967Z,12.00
2018-06-14T03:25:59.644Z,11.90
2018-06-14T03:31:28.876Z,11.90
2018-06-14T03:36:58.199Z,11.90
2018-06-14T03:42:27.426Z,11.80
2018-06-14T03:47:56.449Z,11.80
2018-06-14T03:53:25.678Z,11.80
2018-06-14T03:58:55.002Z,11.80
2018-06-14T04:04:24.405Z,11.80
2018-06-14T04:09:54.273Z,11.90
2018-06-14T04:15:24.993Z,11.90
2018-06-14T04:20:55.447Z,12.00
2018-06-14T04:26:24.868Z,12.10
2018-06-14T04:31:54.603Z,12.10
2018-06-14T04:37:23.863Z,12.10
2018-06-14T04:42:54.187Z,12.20
2018-06-14T04:48:25.172Z,12.20
2018-06-14T04:53:55.510Z,12.40
2018-06-14T04:59:25.195Z,12.60
2018-06-14T05:04:54.455Z,12.80
2018-06-14T05:10:24.120Z,13.00
2018-06-14T05:15:54.396Z,13.30
2018-06-14T05:21:23.883Z,13.50
2018-06-14T05:26:53.491Z,13.80
2018-06-14T05:32:23.106Z,13.90
2018-06-14T05:37:52.557Z,14.00
2018-06-14T05:43:22.554Z,14.10
2018-06-14T05:48:53.103Z,14.30
2018-06-14T05:54:23.896Z,14.60
2018-06-14T05:59:54.752Z,14.60
2018-06-14T06:05:24.678Z,14.80
2018-06-14T06:10:53.961Z,15.00
2018-06-14T06:16:23.558Z,14.90
2018-06-14T06:22:00.675Z,15.10
2018-06-14T06:27:29.896Z,15.10
2018-06-14T06:32:59.088Z,15.00
2018-06-14T06:38:28.355Z,15.00
2018-06-14T06:43:57.549Z,15.10
2018-06-14T06:49:26.783Z,15.20
2018-06-14T06:54:56.231Z,15.30
2018-06-14T07:00:25.897Z,15.40
2018-06-14T07:06:02.134Z,15.70
2018-06-14T07:11:31.402Z,16.00
2018-06-14T07:17:00.613Z,16.00
2018-06-14T07:22:29.831Z,15.90
2018-06-14T07:27:59.030Z,15.60
2018-06-14T07:33:28.276Z,15.20
2018-06-14T07:38:57.524Z,15.10
2018-06-14T07:44:26.681Z,15.00
2018-06-14T07:50:00.801Z,15.00
2018-06-14T07:55:30.163Z,15.00
2018-06-14T08:00:59.424Z,15.10
2018-06-14T08:06:28.716Z,15.20
2018-06-14T08:11:57.905Z,15.30
2018-06-14T08:17:27.290Z,15.20
2018-06-14T08:22:56.544Z,15.30
2018-06-14T08:28:25.717Z,15.40
2018-06-14T08:33:55.980Z,15.50
2018-06-14T08:39:25.229Z,15.40
2018-06-14T08:44:56.432Z,15.30
2018-06-14T08:50:25.763Z,15.40
2018-06-14T08:55:55.516Z,15.50
2018-06-14T09:01:24.914Z,15.50
2018-06-14T09:06:54.851Z,15.70
2018-06-14T09:12:24.837Z,15.70
2018-06-14T09:17:55.007Z,15.60
2018-06-14T09:23:26.693Z,15.60
2018-06-14T09:28:55.726Z,15.70
2018-06-14T09:34:24.995Z,15.90
2018-06-14T09:39:54.386Z,15.90
2018-06-14T09:45:24.248Z,15.90
2018-06-14T09:50:53.646Z,15.90
2018-06-14T09:56:25.119Z,15.90
2018-06-14T10:01:54.719Z,16.10
2018-06-14T10:07:23.965Z,16.20
2018-06-14T10:12:53.247Z,16.60
2018-06-14T10:18:22.763Z,16.80
2018-06-14T10:23:56.951Z,17.10
2018-06-14T10:29:26.178Z,17.20
2018-06-14T10:34:55.542Z,17.60
2018-06-14T10:40:24.777Z,17.80
2018-06-14T10:45:54.371Z,17.70
2018-06-14T10:51:24.422Z,17.60
2018-06-14T10:56:53.672Z,17.60
2018-06-14T11:02:23.110Z,17.50
2018-06-14T11:07:52.485Z,17.30
2018-06-14T11:13:22.225Z,17.30
2018-06-14T11:18:51.606Z,17.40
2018-06-14T11:24:20.994Z,17.40
2018-06-14T11:29:52.820Z,17.40
2018-06-14T11:35:23.728Z,17.40
2018-06-14T11:40:55.829Z,17.40
2018-06-14T11:46:25.117Z,17.40
2018-06-14T11:51:54.430Z,17.70
2018-06-14T11:57:23.656Z,17.80
2018-06-14T12:02:53.452Z,17.90
2018-06-14T12:08:23.451Z,17.90
2018-06-14T12:14:00.976Z,17.90
2018-06-14T12:19:30.183Z,17.80
2018-06-14T12:25:00.774Z,17.80
2018-06-14T12:30:30.069Z,17.80
2018-06-14T12:35:59.316Z,17.90
2018-06-14T12:41:28.533Z,17.90
2018-06-14T12:46:57.510Z,18.00
2018-06-14T12:52:33.224Z,18.20
2018-06-14T12:58:02.457Z,18.30
2018-06-14T13:03:31.939Z,18.40
2018-06-14T13:09:01.271Z,18.60
2018-06-14T13:14:30.596Z,18.90
2018-06-14T13:19:59.771Z,18.90
2018-06-14T13:25:30.106Z,18.90
2018-06-14T13:30:59.397Z,18.90
2018-06-14T13:36:29.052Z,19.10
2018-06-14T13:41:58.146Z,19.20
2018-06-14T13:47:27.349Z,19.30
2018-06-14T13:52:56.626Z,19.40
2018-06-14T13:58:25.902Z,19.40
2018-06-14T14:03:56.003Z,19.20
2018-06-14T14:09:25.334Z,19.10
2018-06-14T14:14:54.604Z,19.20
2018-06-14T14:20:24.906Z,19.00
2018-06-14T14:25:54.103Z,19.00
2018-06-14T14:31:23.475Z,18.70
2018-06-14T14:36:54.905Z,18.70
2018-06-14T14:42:24.208Z,18.70
2018-06-14T14:47:54.073Z,18.90
2018-06-14T14:53:23.388Z,20.10
2018-06-14T14:58:55.733Z,22.10
2018-06-14T15:04:26.410Z,23.60
2018-06-14T15:09:55.801Z,23.70
2018-06-14T15:15:25.224Z,24.20
2018-06-14T15:20:55.137Z,24.40
2018-06-14T15:26:24.683Z,22.80
2018-06-14T15:31:55.011Z,22.00
2018-06-14T15:37:24.286Z,21.40
2018-06-14T15:42:53.666Z,20.80
2018-06-14T15:48:23.841Z,20.40
2018-06-14T15:53:54.197Z,20.10
2018-06-14T15:59:27.467Z,19.80
2018-06-14T16:05:09.007Z,20.20
2018-06-14T16:10:38.312Z,20.20
2018-06-14T16:16:07.701Z,19.70
2018-06-14T16:21:37.036Z,19.30
2018-06-14T16:27:06.350Z,19.10
2018-06-14T16:32:35.676Z,18.80
2018-06-14T16:38:06.041Z,18.60
2018-06-14T16:43:35.425Z,18.60
2018-06-14T16:49:05.451Z,18.50
2018-06-14T16:54:35.867Z,18.20
2018-06-14T17:00:06.076Z,18.10
2018-06-14T17:05:35.426Z,18.00
2018-06-14T17:11:04.738Z,17.90
2018-06-14T17:16:34.983Z,17.90
2018-06-14T17:22:04.218Z,17.90
2018-06-14T17:27:33.455Z,17.80
2018-06-14T17:33:02.783Z,17.70
2018-06-14T17:38:32.137Z,17.60
2018-06-14T17:44:01.679Z,17.50
2018-06-14T17:49:30.624Z,17.40
2018-06-14T17:54:59.951Z,17.20
2018-06-14T18:00:29.197Z,17.20
2018-06-14T18:05:58.501Z,17.10
2018-06-14T18:11:27.857Z,17.00
2018-06-14T18:16:57.181Z,16.90
2018-06-14T18:22:26.516Z,16.70
2018-06-14T18:27:58.341Z,16.70
2018-06-14T18:33:27.787Z,16.60
2018-06-14T18:38:58.459Z,16.50
2018-06-14T18:44:27.710Z,16.50
2018-06-14T18:49:57.388Z,16.40
2018-06-14T18:55:30.200Z,16.30
2018-06-14T19:01:07.393Z,16.20
2018-06-14T19:06:36.659Z,16.00
2018-06-14T19:12:05.970Z,15.90
2018-06-14T19:17:36.513Z,15.80
2018-06-14T19:23:05.709Z,15.70
2018-06-14T19:28:35.018Z,15.60
2018-06-14T19:34:04.054Z,15.50
2018-06-14T19:39:33.394Z,15.40
2018-06-14T19:45:02.724Z,15.40
2018-06-14T19:50:31.978Z,15.40
2018-06-14T19:56:02.225Z,15.40
2018-06-14T20:01:31.530Z,15.30
2018-06-14T20:07:00.763Z,15.20
2018-06-14T20:12:30.026Z,15.20
2018-06-14T20:18:00.088Z,15.30
2018-06-14T20:23:29.465Z,15.20
2018-06-14T20:28:58.663Z,14.90
2018-06-14T20:34:27.900Z,14.70
2018-06-14T20:39:57.099Z,14.50
2018-06-14T20:45:26.496Z,14.30
2018-06-14T20:50:55.802Z,14.20
2018-06-14T20:56:25.168Z,14.10
2018-06-14T21:01:54.698Z,14.00
2018-06-14T21:07:24.531Z,14.00
2018-06-14T21:12:54.816Z,13.90
2018-06-14T21:18:24.318Z,13.90
2018-06-14T21:23:54.187Z,13.90
2018-06-14T21:29:24.585Z,13.80
2018-06-14T21:34:53.819Z,14.10
2018-06-14T21:40:23.647Z,13.70
2018-06-14T21:45:53.354Z,13.60
2018-06-14T21:51:23.167Z,13.50
2018-06-14T21:56:52.877Z,13.40
2018-06-14T22:02:22.661Z,13.20
2018-06-14T22:07:53.012Z,13.10
2018-06-14T22:13:22.280Z,13.00
2018-06-14T22:18:51.852Z,12.90
2018-06-14T22:24:21.487Z,12.80
2018-06-14T22:29:51.314Z,12.70
2018-06-14T22:35:29.807Z,12.70
2018-06-14T22:40:59.032Z,12.60
2018-06-14T22:46:28.260Z,12.50
2018-06-14T22:52:51.404Z,12.40
2018-06-14T22:58:21.470Z,12.30
2018-06-14T23:03:51.066Z,12.20
2018-06-14T23:10:41.116Z,12.10
2018-06-14T23:16:15.831Z,12.00
2018-06-14T23:21:48.147Z,11.90
2018-06-14T23:27:18.881Z,11.90
2018-06-14T23:32:49.681Z,11.90
2018-06-14T23:38:19.868Z,11.80
2018-06-14T23:43:49.677Z,11.80
2018-06-14T23:49:19.962Z,11.80
2018-06-14T23:54:50.448Z,11.90
